sensor_id;sensor_type;location;lat;lon;timestamp;temperature;humidity
18412;DHT22;27097;51.738;19.472;2023-03-01T00:01:39;21.10;64.90
18412;DHT22;27097;51.738;19.472;2023-03-01T00:04:05;21.10;64.90
18412;DHT22;27097;51.738;19.472;2023-03-01T00:06:32;21.10;65.00
18412;DHT22;27097;51.738;19.472;2023-03-01T00:08:59;21.10;65.00
18412;DHT22;27097;51.738;19.472;2023-03-01T00:11:29;21.10;65.00
18412;DHT22;27097;51.738;19.472;2023-03-01T00:13:57;21.20;64.60
18412;DHT22;27097;51.738;19.472;2023-03-01T00:16:26;21.20;65.10
18412;DHT22;27097;51.738;19.472;2023-03-01T00:18:54;21.20;65.50
18412;DHT22;27097;51.738;19.472;2023-03-01T00:21:21;21.20;65.30
18412;DHT22;27097;51.738;19.472;2023-03-01T00:23:49;21.20;65.40
18412;DHT22;27097;51.738;19.472;2023-03-01T00:26:17;21.20;65.10
18412;DHT22;27097;51.738;19.472;2023-03-01T00:28:46;21.20;65.60
18412;DHT22;27097;51.738;19.472;2023-03-01T00:31:15;21.20;65.50
18412;DHT22;27097;51.738;19.472;2023-03-01T00:33:43;21.20;65.50
18412;DHT22;27097;51.738;19.472;2023-03-01T00:36:11;21.20;66.30
18412;DHT22;27097;51.738;19.472;2023-03-01T00:38:40;21.20;65.60
18412;DHT22;27097;51.738;19.472;2023-03-01T00:41:09;21.20;66.00
18412;DHT22;27097;51.738;19.472;2023-03-01T00:43:36;21.20;66.70
18412;DHT22;27097;51.738;19.472;2023-03-01T00:46:07;21.20;65.80
18412;DHT22;27097;51.738;19.472;2023-03-01T00:48:35;21.20;65.80
18412;DHT22;27097;51.738;19.472;2023-03-01T00:51:08;21.20;66.00
18412;DHT22;27097;51.738;19.472;2023-03-01T00:53:36;21.20;66.30
18412;DHT22;27097;51.738;19.472;2023-03-01T00:56:04;21.20;66.40
18412;DHT22;27097;51.738;19.472;2023-03-01T00:58:31;21.20;66.40
18412;DHT22;27097;51.738;19.472;2023-03-01T01:00:58;21.20;66.20
18412;DHT22;27097;51.738;19.472;2023-03-01T01:03:26;21.20;66.70
18412;DHT22;27097;51.738;19.472;2023-03-01T01:05:53;21.20;66.90
18412;DHT22;27097;51.738;19.472;2023-03-01T01:08:20;21.20;66.40
18412;DHT22;27097;51.738;19.472;2023-03-01T01:10:47;21.20;66.30
18412;DHT22;27097;51.738;19.472;2023-03-01T01:13:14;21.20;66.80
18412;DHT22;27097;51.738;19.472;2023-03-01T01:15:41;21.20;66.50
18412;DHT22;27097;51.738;19.472;2023-03-01T01:18:08;21.20;66.80
18412;DHT22;27097;51.738;19.472;2023-03-01T01:20:36;21.20;66.40
18412;DHT22;27097;51.738;19.472;2023-03-01T01:23:05;21.20;66.50
18412;DHT22;27097;51.738;19.472;2023-03-01T01:25:34;21.20;67.00
18412;DHT22;27097;51.738;19.472;2023-03-01T01:28:01;21.20;66.70
18412;DHT22;27097;51.738;19.472;2023-03-01T01:30:28;21.20;66.80
18412;DHT22;27097;51.738;19.472;2023-03-01T01:32:55;21.20;66.70
18412;DHT22;27097;51.738;19.472;2023-03-01T01:35:22;21.20;65.80
18412;DHT22;27097;51.738;19.472;2023-03-01T01:37:50;21.20;67.00
18412;DHT22;27097;51.738;19.472;2023-03-01T01:40:17;21.20;67.40
18412;DHT22;27097;51.738;19.472;2023-03-01T01:42:44;21.20;67.90
18412;DHT22;27097;51.738;19.472;2023-03-01T01:45:33;21.20;67.40
18412;DHT22;27097;51.738;19.472;2023-03-01T01:48:03;21.20;67.70
18412;DHT22;27097;51.738;19.472;2023-03-01T01:50:32;21.20;67.40
18412;DHT22;27097;51.738;19.472;2023-03-01T01:53:06;21.20;67.30
18412;DHT22;27097;51.738;19.472;2023-03-01T01:55:36;21.20;67.80
18412;DHT22;27097;51.738;19.472;2023-03-01T01:58:07;21.20;67.60
18412;DHT22;27097;51.738;19.472;2023-03-01T02:00:34;21.20;68.10
18412;DHT22;27097;51.738;19.472;2023-03-01T02:03:06;21.20;67.70
18412;DHT22;27097;51.738;19.472;2023-03-01T02:05:38;21.20;67.60
18412;DHT22;27097;51.738;19.472;2023-03-01T02:08:08;21.20;67.90
18412;DHT22;27097;51.738;19.472;2023-03-01T02:10:37;21.20;67.40
18412;DHT22;27097;51.738;19.472;2023-03-01T02:13:05;21.20;67.80
18412;DHT22;27097;51.738;19.472;2023-03-01T02:15:34;21.20;67.90
18412;DHT22;27097;51.738;19.472;2023-03-01T02:18:03;21.20;68.00
18412;DHT22;27097;51.738;19.472;2023-03-01T02:20:34;21.20;67.60
18412;DHT22;27097;51.738;19.472;2023-03-01T02:23:02;21.10;67.60
18412;DHT22;27097;51.738;19.472;2023-03-01T02:25:38;21.20;67.70
18412;DHT22;27097;51.738;19.472;2023-03-01T02:28:19;21.20;67.80
18412;DHT22;27097;51.738;19.472;2023-03-01T02:30:47;21.20;67.50
18412;DHT22;27097;51.738;19.472;2023-03-01T02:33:30;21.10;67.60
18412;DHT22;27097;51.738;19.472;2023-03-01T02:35:59;21.10;68.00
18412;DHT22;27097;51.738;19.472;2023-03-01T02:38:27;21.10;67.70
18412;DHT22;27097;51.738;19.472;2023-03-01T02:40:54;21.20;67.70
18412;DHT22;27097;51.738;19.472;2023-03-01T02:43:27;21.10;67.60
18412;DHT22;27097;51.738;19.472;2023-03-01T02:45:58;21.10;68.30
18412;DHT22;27097;51.738;19.472;2023-03-01T02:48:25;21.10;68.00
18412;DHT22;27097;51.738;19.472;2023-03-01T02:51:01;21.10;68.30
18412;DHT22;27097;51.738;19.472;2023-03-01T02:53:38;21.10;68.10
18412;DHT22;27097;51.738;19.472;2023-03-01T02:56:06;21.10;68.30
18412;DHT22;27097;51.738;19.472;2023-03-01T02:58:40;21.10;67.50
18412;DHT22;27097;51.738;19.472;2023-03-01T03:01:11;21.10;68.10
18412;DHT22;27097;51.738;19.472;2023-03-01T03:03:39;21.10;68.40
18412;DHT22;27097;51.738;19.472;2023-03-01T03:06:06;21.10;68.40
18412;DHT22;27097;51.738;19.472;2023-03-01T03:08:32;21.10;68.20
18412;DHT22;27097;51.738;19.472;2023-03-01T03:10:59;21.10;68.10
18412;DHT22;27097;51.738;19.472;2023-03-01T03:13:26;21.10;68.50
18412;DHT22;27097;51.738;19.472;2023-03-01T03:15:55;21.10;68.30
18412;DHT22;27097;51.738;19.472;2023-03-01T03:18:23;21.10;68.30
18412;DHT22;27097;51.738;19.472;2023-03-01T03:20:52;21.10;68.20
18412;DHT22;27097;51.738;19.472;2023-03-01T03:23:20;21.10;68.00
18412;DHT22;27097;51.738;19.472;2023-03-01T03:25:48;21.10;68.30
18412;DHT22;27097;51.738;19.472;2023-03-01T03:28:15;21.10;67.90
18412;DHT22;27097;51.738;19.472;2023-03-01T03:30:43;21.10;68.10
18412;DHT22;27097;51.738;19.472;2023-03-01T03:33:12;21.10;68.30
18412;DHT22;27097;51.738;19.472;2023-03-01T03:35:42;21.10;67.80
18412;DHT22;27097;51.738;19.472;2023-03-01T03:38:11;21.10;68.70
18412;DHT22;27097;51.738;19.472;2023-03-01T03:40:44;21.10;68.70
18412;DHT22;27097;51.738;19.472;2023-03-01T03:43:13;21.10;68.70
18412;DHT22;27097;51.738;19.472;2023-03-01T03:45:40;21.10;68.60
18412;DHT22;27097;51.738;19.472;2023-03-01T03:48:08;21.10;68.50
18412;DHT22;27097;51.738;19.472;2023-03-01T03:50:38;21.10;68.60
18412;DHT22;27097;51.738;19.472;2023-03-01T03:53:06;21.10;68.40
18412;DHT22;27097;51.738;19.472;2023-03-01T03:55:34;21.10;68.20
18412;DHT22;27097;51.738;19.472;2023-03-01T03:58:01;21.10;69.00
18412;DHT22;27097;51.738;19.472;2023-03-01T04:00:33;21.10;68.80
18412;DHT22;27097;51.738;19.472;2023-03-01T04:03:00;21.10;68.30
18412;DHT22;27097;51.738;19.472;2023-03-01T04:05:27;21.10;68.30
18412;DHT22;27097;51.738;19.472;2023-03-01T04:07:56;21.10;68.60
18412;DHT22;27097;51.738;19.472;2023-03-01T04:10:34;21.10;68.50
18412;DHT22;27097;51.738;19.472;2023-03-01T04:13:02;21.10;68.70
18412;DHT22;27097;51.738;19.472;2023-03-01T04:15:30;21.10;68.70
18412;DHT22;27097;51.738;19.472;2023-03-01T04:17:58;21.10;68.40
18412;DHT22;27097;51.738;19.472;2023-03-01T04:20:26;21.10;68.60
18412;DHT22;27097;51.738;19.472;2023-03-01T04:22:59;21.10;68.30
18412;DHT22;27097;51.738;19.472;2023-03-01T04:25:36;21.10;68.50
18412;DHT22;27097;51.738;19.472;2023-03-01T04:28:04;21.10;68.70
18412;DHT22;27097;51.738;19.472;2023-03-01T04:30:30;21.10;68.70
18412;DHT22;27097;51.738;19.472;2023-03-01T04:33:01;21.10;68.80
18412;DHT22;27097;51.738;19.472;2023-03-01T04:35:29;21.10;68.40
18412;DHT22;27097;51.738;19.472;2023-03-01T04:37:55;21.10;68.30
18412;DHT22;27097;51.738;19.472;2023-03-01T04:40:24;21.10;68.50
18412;DHT22;27097;51.738;19.472;2023-03-01T04:42:51;21.10;68.60
18412;DHT22;27097;51.738;19.472;2023-03-01T04:45:18;21.10;68.50
18412;DHT22;27097;51.738;19.472;2023-03-01T04:47:46;21.10;68.60
18412;DHT22;27097;51.738;19.472;2023-03-01T04:50:15;21.10;68.30
18412;DHT22;27097;51.738;19.472;2023-03-01T04:52:42;21.10;68.30
18412;DHT22;27097;51.738;19.472;2023-03-01T04:55:10;21.10;68.50
18412;DHT22;27097;51.738;19.472;2023-03-01T04:57:38;21.10;69.00
18412;DHT22;27097;51.738;19.472;2023-03-01T05:00:07;21.00;68.90
18412;DHT22;27097;51.738;19.472;2023-03-01T05:02:46;21.00;68.70
18412;DHT22;27097;51.738;19.472;2023-03-01T05:05:22;21.00;68.50
18412;DHT22;27097;51.738;19.472;2023-03-01T05:07:52;21.00;68.30
18412;DHT22;27097;51.738;19.472;2023-03-01T05:10:19;21.10;69.00
18412;DHT22;27097;51.738;19.472;2023-03-01T05:12:47;21.10;68.80
18412;DHT22;27097;51.738;19.472;2023-03-01T05:15:14;21.00;69.20
18412;DHT22;27097;51.738;19.472;2023-03-01T05:17:41;21.00;69.10
18412;DHT22;27097;51.738;19.472;2023-03-01T05:20:09;21.00;68.90
18412;DHT22;27097;51.738;19.472;2023-03-01T05:22:36;21.00;69.30
18412;DHT22;27097;51.738;19.472;2023-03-01T05:25:04;21.00;69.10
18412;DHT22;27097;51.738;19.472;2023-03-01T05:27:31;21.00;68.90
18412;DHT22;27097;51.738;19.472;2023-03-01T05:29:59;21.00;69.10
18412;DHT22;27097;51.738;19.472;2023-03-01T05:32:39;21.00;68.90
18412;DHT22;27097;51.738;19.472;2023-03-01T05:35:07;21.00;69.00
18412;DHT22;27097;51.738;19.472;2023-03-01T05:37:34;21.00;68.90
18412;DHT22;27097;51.738;19.472;2023-03-01T05:40:01;21.00;69.00
18412;DHT22;27097;51.738;19.472;2023-03-01T05:42:30;21.00;69.40
18412;DHT22;27097;51.738;19.472;2023-03-01T05:44:58;21.00;69.30
18412;DHT22;27097;51.738;19.472;2023-03-01T05:47:25;21.00;69.10
18412;DHT22;27097;51.738;19.472;2023-03-01T05:49:52;21.00;69.10
18412;DHT22;27097;51.738;19.472;2023-03-01T05:52:21;21.00;69.30
18412;DHT22;27097;51.738;19.472;2023-03-01T05:54:48;21.00;69.30
18412;DHT22;27097;51.738;19.472;2023-03-01T05:57:15;21.00;69.40
18412;DHT22;27097;51.738;19.472;2023-03-01T05:59:41;21.00;69.60
18412;DHT22;27097;51.738;19.472;2023-03-01T06:02:10;21.00;69.50
18412;DHT22;27097;51.738;19.472;2023-03-01T06:04:36;21.00;69.60
18412;DHT22;27097;51.738;19.472;2023-03-01T06:07:03;21.00;70.20
18412;DHT22;27097;51.738;19.472;2023-03-01T06:09:30;21.00;69.60
18412;DHT22;27097;51.738;19.472;2023-03-01T06:11:57;21.00;70.20
18412;DHT22;27097;51.738;19.472;2023-03-01T06:14:24;21.00;70.60
18412;DHT22;27097;51.738;19.472;2023-03-01T06:16:51;21.00;71.00
18412;DHT22;27097;51.738;19.472;2023-03-01T06:19:19;21.10;71.40
18412;DHT22;27097;51.738;19.472;2023-03-01T06:21:46;21.10;70.80
18412;DHT22;27097;51.738;19.472;2023-03-01T06:24:12;21.10;70.90
18412;DHT22;27097;51.738;19.472;2023-03-01T06:26:39;21.10;71.00
18412;DHT22;27097;51.738;19.472;2023-03-01T06:29:06;21.10;71.00
18412;DHT22;27097;51.738;19.472;2023-03-01T06:31:34;21.10;70.90
18412;DHT22;27097;51.738;19.472;2023-03-01T06:34:02;21.10;68.50
18412;DHT22;27097;51.738;19.472;2023-03-01T06:36:30;21.10;65.50
18412;DHT22;27097;51.738;19.472;2023-03-01T06:38:57;21.10;65.60
18412;DHT22;27097;51.738;19.472;2023-03-01T06:41:24;21.10;63.60
18412;DHT22;27097;51.738;19.472;2023-03-01T06:43:51;21.10;67.10
18412;DHT22;27097;51.738;19.472;2023-03-01T06:46:19;21.10;67.10
18412;DHT22;27097;51.738;19.472;2023-03-01T06:48:47;21.10;66.10
18412;DHT22;27097;51.738;19.472;2023-03-01T06:51:13;21.10;65.20
18412;DHT22;27097;51.738;19.472;2023-03-01T06:53:42;21.10;66.20
18412;DHT22;27097;51.738;19.472;2023-03-01T06:56:08;21.10;66.30
18412;DHT22;27097;51.738;19.472;2023-03-01T06:58:37;21.10;67.80
18412;DHT22;27097;51.738;19.472;2023-03-01T07:01:06;21.10;68.10
18412;DHT22;27097;51.738;19.472;2023-03-01T07:03:32;21.20;68.70
18412;DHT22;27097;51.738;19.472;2023-03-01T07:05:59;21.20;70.30
18412;DHT22;27097;51.738;19.472;2023-03-01T07:08:26;21.30;70.40
18412;DHT22;27097;51.738;19.472;2023-03-01T07:10:58;21.30;69.20
18412;DHT22;27097;51.738;19.472;2023-03-01T07:13:27;21.30;69.00
18412;DHT22;27097;51.738;19.472;2023-03-01T07:15:54;21.40;69.00
18412;DHT22;27097;51.738;19.472;2023-03-01T07:18:21;21.40;69.10
18412;DHT22;27097;51.738;19.472;2023-03-01T07:20:48;21.50;66.60
18412;DHT22;27097;51.738;19.472;2023-03-01T07:23:14;21.50;69.00
18412;DHT22;27097;51.738;19.472;2023-03-01T07:25:41;21.50;69.40
18412;DHT22;27097;51.738;19.472;2023-03-01T07:28:10;21.50;68.60
18412;DHT22;27097;51.738;19.472;2023-03-01T07:30:36;21.60;68.10
18412;DHT22;27097;51.738;19.472;2023-03-01T07:33:04;21.60;67.60
18412;DHT22;27097;51.738;19.472;2023-03-01T07:35:31;21.60;67.30
18412;DHT22;27097;51.738;19.472;2023-03-01T07:37:58;21.70;66.80
18412;DHT22;27097;51.738;19.472;2023-03-01T07:40:25;21.70;66.80
18412;DHT22;27097;51.738;19.472;2023-03-01T07:42:55;21.70;65.40
18412;DHT22;27097;51.738;19.472;2023-03-01T07:45:24;21.80;64.80
18412;DHT22;27097;51.738;19.472;2023-03-01T07:47:51;21.80;64.20
18412;DHT22;27097;51.738;19.472;2023-03-01T07:50:18;21.90;63.50
18412;DHT22;27097;51.738;19.472;2023-03-01T07:52:45;21.90;62.40
18412;DHT22;27097;51.738;19.472;2023-03-01T07:55:13;21.90;62.40
18412;DHT22;27097;51.738;19.472;2023-03-01T07:57:40;21.90;61.60
18412;DHT22;27097;51.738;19.472;2023-03-01T08:00:10;22.00;61.40
18412;DHT22;27097;51.738;19.472;2023-03-01T08:02:38;22.00;60.50
18412;DHT22;27097;51.738;19.472;2023-03-01T08:05:07;22.00;60.90
18412;DHT22;27097;51.738;19.472;2023-03-01T08:07:34;22.10;59.90
18412;DHT22;27097;51.738;19.472;2023-03-01T08:10:01;22.10;60.00
18412;DHT22;27097;51.738;19.472;2023-03-01T08:12:28;22.10;59.80
18412;DHT22;27097;51.738;19.472;2023-03-01T08:14:55;22.20;60.50
18412;DHT22;27097;51.738;19.472;2023-03-01T08:17:22;22.20;61.80
18412;DHT22;27097;51.738;19.472;2023-03-01T08:19:50;22.20;62.70
18412;DHT22;27097;51.738;19.472;2023-03-01T08:22:17;22.20;63.00
18412;DHT22;27097;51.738;19.472;2023-03-01T08:24:44;22.20;62.70
18412;DHT22;27097;51.738;19.472;2023-03-01T08:27:11;22.20;63.80
18412;DHT22;27097;51.738;19.472;2023-03-01T08:29:38;22.20;63.90
18412;DHT22;27097;51.738;19.472;2023-03-01T08:32:05;22.20;63.80
18412;DHT22;27097;51.738;19.472;2023-03-01T08:34:32;22.30;61.90
18412;DHT22;27097;51.738;19.472;2023-03-01T08:37:02;22.30;61.30
18412;DHT22;27097;51.738;19.472;2023-03-01T08:39:29;22.40;61.00
18412;DHT22;27097;51.738;19.472;2023-03-01T08:41:56;22.40;61.20
18412;DHT22;27097;51.738;19.472;2023-03-01T08:44:23;22.50;60.70
18412;DHT22;27097;51.738;19.472;2023-03-01T08:46:50;22.50;60.70
18412;DHT22;27097;51.738;19.472;2023-03-01T08:49:19;22.60;60.70
18412;DHT22;27097;51.738;19.472;2023-03-01T08:51:47;22.60;60.70
18412;DHT22;27097;51.738;19.472;2023-03-01T08:54:19;22.70;60.90
18412;DHT22;27097;51.738;19.472;2023-03-01T08:56:49;22.70;61.60
18412;DHT22;27097;51.738;19.472;2023-03-01T08:59:17;22.70;62.80
18412;DHT22;27097;51.738;19.472;2023-03-01T09:01:45;22.70;63.40
18412;DHT22;27097;51.738;19.472;2023-03-01T09:04:12;22.70;63.80
18412;DHT22;27097;51.738;19.472;2023-03-01T09:06:39;22.70;63.80
18412;DHT22;27097;51.738;19.472;2023-03-01T09:09:13;22.70;63.70
18412;DHT22;27097;51.738;19.472;2023-03-01T09:11:43;22.70;64.50
18412;DHT22;27097;51.738;19.472;2023-03-01T09:14:11;22.60;64.20
18412;DHT22;27097;51.738;19.472;2023-03-01T09:16:38;22.70;65.10
18412;DHT22;27097;51.738;19.472;2023-03-01T09:19:05;22.60;65.00
18412;DHT22;27097;51.738;19.472;2023-03-01T09:21:32;22.60;65.20
18412;DHT22;27097;51.738;19.472;2023-03-01T09:23:59;22.60;65.30
18412;DHT22;27097;51.738;19.472;2023-03-01T09:26:27;22.60;65.40
18412;DHT22;27097;51.738;19.472;2023-03-01T09:28:56;22.70;65.60
18412;DHT22;27097;51.738;19.472;2023-03-01T09:31:23;22.70;65.50
18412;DHT22;27097;51.738;19.472;2023-03-01T09:33:53;22.60;61.10
18412;DHT22;27097;51.738;19.472;2023-03-01T09:36:22;22.50;60.00
18412;DHT22;27097;51.738;19.472;2023-03-01T09:38:51;22.40;58.80
18412;DHT22;27097;51.738;19.472;2023-03-01T09:41:30;22.30;49.80
18412;DHT22;27097;51.738;19.472;2023-03-01T09:44:04;22.20;56.40
18412;DHT22;27097;51.738;19.472;2023-03-01T09:46:40;22.20;49.30
18412;DHT22;27097;51.738;19.472;2023-03-01T09:49:14;22.10;48.40
18412;DHT22;27097;51.738;19.472;2023-03-01T09:51:42;22.10;52.50
18412;DHT22;27097;51.738;19.472;2023-03-01T09:54:10;22.00;54.60
18412;DHT22;27097;51.738;19.472;2023-03-01T09:56:41;22.00;54.80
18412;DHT22;27097;51.738;19.472;2023-03-01T09:59:18;22.00;54.00
18412;DHT22;27097;51.738;19.472;2023-03-01T10:01:54;22.00;53.70
18412;DHT22;27097;51.738;19.472;2023-03-01T10:04:32;22.00;53.20
18412;DHT22;27097;51.738;19.472;2023-03-01T10:07:15;22.10;52.80
18412;DHT22;27097;51.738;19.472;2023-03-01T10:09:45;22.10;48.10
18412;DHT22;27097;51.738;19.472;2023-03-01T10:12:16;22.10;50.70
18412;DHT22;27097;51.738;19.472;2023-03-01T10:14:53;22.20;51.20
18412;DHT22;27097;51.738;19.472;2023-03-01T10:17:27;22.20;51.60
18412;DHT22;27097;51.738;19.472;2023-03-01T10:19:55;22.10;52.10
18412;DHT22;27097;51.738;19.472;2023-03-01T10:22:28;22.10;52.60
18412;DHT22;27097;51.738;19.472;2023-03-01T10:24:58;22.10;51.70
18412;DHT22;27097;51.738;19.472;2023-03-01T10:27:32;22.10;48.80
18412;DHT22;27097;51.738;19.472;2023-03-01T10:30:10;22.10;51.70
18412;DHT22;27097;51.738;19.472;2023-03-01T10:32:41;22.10;49.90
18412;DHT22;27097;51.738;19.472;2023-03-01T10:35:17;22.10;51.30
18412;DHT22;27097;51.738;19.472;2023-03-01T10:37:58;22.10;51.40
18412;DHT22;27097;51.738;19.472;2023-03-01T10:40:25;22.10;51.50
18412;DHT22;27097;51.738;19.472;2023-03-01T10:42:52;22.10;51.40
18412;DHT22;27097;51.738;19.472;2023-03-01T10:45:30;22.00;51.00
18412;DHT22;27097;51.738;19.472;2023-03-01T10:48:12;22.10;51.60
18412;DHT22;27097;51.738;19.472;2023-03-01T10:50:41;22.10;51.30
18412;DHT22;27097;51.738;19.472;2023-03-01T10:53:24;22.10;51.00
18412;DHT22;27097;51.738;19.472;2023-03-01T10:56:00;22.00;50.40
18412;DHT22;27097;51.738;19.472;2023-03-01T10:58:28;22.00;50.80
18412;DHT22;27097;51.738;19.472;2023-03-01T11:00:58;22.00;50.80
18412;DHT22;27097;51.738;19.472;2023-03-01T11:03:28;22.00;51.30
18412;DHT22;27097;51.738;19.472;2023-03-01T11:06:04;22.00;50.90
18412;DHT22;27097;51.738;19.472;2023-03-01T11:08:37;22.00;49.80
18412;DHT22;27097;51.738;19.472;2023-03-01T11:11:22;22.00;50.50
18412;DHT22;27097;51.738;19.472;2023-03-01T11:13:53;22.00;50.50
18412;DHT22;27097;51.738;19.472;2023-03-01T11:16:31;22.00;50.70
18412;DHT22;27097;51.738;19.472;2023-03-01T11:19:17;22.00;49.90
18412;DHT22;27097;51.738;19.472;2023-03-01T11:21:53;22.00;49.90
18412;DHT22;27097;51.738;19.472;2023-03-01T11:24:26;22.00;49.80
18412;DHT22;27097;51.738;19.472;2023-03-01T11:26:54;22.00;50.20
18412;DHT22;27097;51.738;19.472;2023-03-01T11:29:30;22.00;49.50
18412;DHT22;27097;51.738;19.472;2023-03-01T11:32:02;22.00;49.60
18412;DHT22;27097;51.738;19.472;2023-03-01T11:34:42;22.00;50.00
18412;DHT22;27097;51.738;19.472;2023-03-01T11:37:30;22.00;50.00
18412;DHT22;27097;51.738;19.472;2023-03-01T11:40:04;22.00;49.50
18412;DHT22;27097;51.738;19.472;2023-03-01T11:42:43;22.00;49.50
18412;DHT22;27097;51.738;19.472;2023-03-01T11:45:12;22.00;49.70
18412;DHT22;27097;51.738;19.472;2023-03-01T11:47:51;22.00;49.70
18412;DHT22;27097;51.738;19.472;2023-03-01T11:50:28;22.00;48.30
18412;DHT22;27097;51.738;19.472;2023-03-01T11:56:09;22.00;47.70
18412;DHT22;27097;51.738;19.472;2023-03-01T11:58:57;22.00;48.80
18412;DHT22;27097;51.738;19.472;2023-03-01T12:01:37;22.00;49.20
18412;DHT22;27097;51.738;19.472;2023-03-01T12:07:06;22.00;49.00
18412;DHT22;27097;51.738;19.472;2023-03-01T12:09:49;22.00;48.70
18412;DHT22;27097;51.738;19.472;2023-03-01T12:12:27;22.00;49.00
18412;DHT22;27097;51.738;19.472;2023-03-01T12:18:25;22.00;47.20
18412;DHT22;27097;51.738;19.472;2023-03-01T12:21:05;22.00;46.50
18412;DHT22;27097;51.738;19.472;2023-03-01T12:26:48;22.10;47.70
18412;DHT22;27097;51.738;19.472;2023-03-01T12:29:25;22.00;48.40
18412;DHT22;27097;51.738;19.472;2023-03-01T12:37:54;22.10;47.30
18412;DHT22;27097;51.738;19.472;2023-03-01T12:40:33;22.10;48.30
18412;DHT22;27097;51.738;19.472;2023-03-01T12:43:16;22.10;48.40
18412;DHT22;27097;51.738;19.472;2023-03-01T12:45:54;22.10;47.60
18412;DHT22;27097;51.738;19.472;2023-03-01T12:48:33;22.10;47.20
18412;DHT22;27097;51.738;19.472;2023-03-01T12:51:07;22.10;47.80
18412;DHT22;27097;51.738;19.472;2023-03-01T12:53:40;22.10;48.10
18412;DHT22;27097;51.738;19.472;2023-03-01T12:56:10;22.10;46.90
18412;DHT22;27097;51.738;19.472;2023-03-01T12:58:42;22.10;44.40
18412;DHT22;27097;51.738;19.472;2023-03-01T13:01:22;22.10;46.90
18412;DHT22;27097;51.738;19.472;2023-03-01T13:04:18;22.10;47.10
18412;DHT22;27097;51.738;19.472;2023-03-01T13:06:55;22.10;46.90
18412;DHT22;27097;51.738;19.472;2023-03-01T13:09:31;22.10;45.50
18412;DHT22;27097;51.738;19.472;2023-03-01T13:12:01;22.10;47.50
18412;DHT22;27097;51.738;19.472;2023-03-01T13:14:45;22.10;47.50
18412;DHT22;27097;51.738;19.472;2023-03-01T13:17:33;22.00;47.50
18412;DHT22;27097;51.738;19.472;2023-03-01T13:20:13;22.00;47.20
18412;DHT22;27097;51.738;19.472;2023-03-01T13:22:41;22.00;47.20
18412;DHT22;27097;51.738;19.472;2023-03-01T13:25:17;22.00;47.30
18412;DHT22;27097;51.738;19.472;2023-03-01T13:27:46;21.90;47.00
18412;DHT22;27097;51.738;19.472;2023-03-01T13:30:41;21.90;46.50
18412;DHT22;27097;51.738;19.472;2023-03-01T13:33:40;21.90;47.20
18412;DHT22;27097;51.738;19.472;2023-03-01T13:36:08;21.90;43.30
18412;DHT22;27097;51.738;19.472;2023-03-01T13:38:46;21.80;44.70
18412;DHT22;27097;51.738;19.472;2023-03-01T13:41:16;21.90;43.20
18412;DHT22;27097;51.738;19.472;2023-03-01T13:43:44;21.80;42.90
18412;DHT22;27097;51.738;19.472;2023-03-01T13:46:16;21.80;45.60
18412;DHT22;27097;51.738;19.472;2023-03-01T13:48:47;21.80;46.20
18412;DHT22;27097;51.738;19.472;2023-03-01T13:51:15;21.80;44.90
18412;DHT22;27097;51.738;19.472;2023-03-01T13:53:45;21.80;43.70
18412;DHT22;27097;51.738;19.472;2023-03-01T13:56:16;21.80;42.00
18412;DHT22;27097;51.738;19.472;2023-03-01T13:58:48;21.80;41.00
18412;DHT22;27097;51.738;19.472;2023-03-01T14:01:22;21.80;41.10
18412;DHT22;27097;51.738;19.472;2023-03-01T14:03:49;21.70;41.20
18412;DHT22;27097;51.738;19.472;2023-03-01T14:06:19;21.70;42.10
18412;DHT22;27097;51.738;19.472;2023-03-01T14:08:49;21.70;41.30
18412;DHT22;27097;51.738;19.472;2023-03-01T14:11:42;21.70;42.50
18412;DHT22;27097;51.738;19.472;2023-03-01T14:14:29;21.60;41.50
18412;DHT22;27097;51.738;19.472;2023-03-01T14:17:06;21.60;40.40
18412;DHT22;27097;51.738;19.472;2023-03-01T14:19:36;21.60;39.70
18412;DHT22;27097;51.738;19.472;2023-03-01T14:22:12;21.60;40.10
18412;DHT22;27097;51.738;19.472;2023-03-01T14:24:47;21.50;38.20
18412;DHT22;27097;51.738;19.472;2023-03-01T14:27:16;21.50;38.80
18412;DHT22;27097;51.738;19.472;2023-03-01T14:29:44;21.40;39.50
18412;DHT22;27097;51.738;19.472;2023-03-01T14:32:15;21.40;39.90
18412;DHT22;27097;51.738;19.472;2023-03-01T14:34:45;21.30;39.40
18412;DHT22;27097;51.738;19.472;2023-03-01T14:37:19;21.30;39.00
18412;DHT22;27097;51.738;19.472;2023-03-01T14:39:46;21.30;39.00
18412;DHT22;27097;51.738;19.472;2023-03-01T14:42:14;21.30;38.90
18412;DHT22;27097;51.738;19.472;2023-03-01T14:44:45;21.30;38.90
18412;DHT22;27097;51.738;19.472;2023-03-01T14:47:16;21.20;37.40
18412;DHT22;27097;51.738;19.472;2023-03-01T14:49:47;21.20;38.10
18412;DHT22;27097;51.738;19.472;2023-03-01T14:52:21;21.20;39.40
18412;DHT22;27097;51.738;19.472;2023-03-01T14:54:50;21.10;37.90
18412;DHT22;27097;51.738;19.472;2023-03-01T14:57:20;21.10;38.20
18412;DHT22;27097;51.738;19.472;2023-03-01T14:59:50;21.10;36.90
18412;DHT22;27097;51.738;19.472;2023-03-01T15:02:21;21.00;37.90
18412;DHT22;27097;51.738;19.472;2023-03-01T15:04:53;21.00;37.10
18412;DHT22;27097;51.738;19.472;2023-03-01T15:07:22;20.90;38.10
18412;DHT22;27097;51.738;19.472;2023-03-01T15:09:53;20.90;38.40
18412;DHT22;27097;51.738;19.472;2023-03-01T15:12:36;20.90;38.40
18412;DHT22;27097;51.738;19.472;2023-03-01T15:15:20;20.90;37.30
18412;DHT22;27097;51.738;19.472;2023-03-01T15:17:52;20.80;37.00
18412;DHT22;27097;51.738;19.472;2023-03-01T15:20:22;20.80;37.40
18412;DHT22;27097;51.738;19.472;2023-03-01T15:22:51;20.80;37.60
18412;DHT22;27097;51.738;19.472;2023-03-01T15:25:20;20.70;36.90
18412;DHT22;27097;51.738;19.472;2023-03-01T15:27:49;20.70;37.10
18412;DHT22;27097;51.738;19.472;2023-03-01T15:30:21;20.60;37.20
18412;DHT22;27097;51.738;19.472;2023-03-01T15:32:48;20.50;37.10
18412;DHT22;27097;51.738;19.472;2023-03-01T15:35:40;20.50;37.10
18412;DHT22;27097;51.738;19.472;2023-03-01T15:38:29;20.50;37.10
18412;DHT22;27097;51.738;19.472;2023-03-01T15:40:58;20.40;36.30
18412;DHT22;27097;51.738;19.472;2023-03-01T15:43:43;20.40;36.20
18412;DHT22;27097;51.738;19.472;2023-03-01T15:46:21;20.30;36.60
18412;DHT22;27097;51.738;19.472;2023-03-01T15:48:52;20.30;37.10
18412;DHT22;27097;51.738;19.472;2023-03-01T15:51:23;20.20;36.80
18412;DHT22;27097;51.738;19.472;2023-03-01T15:53:59;20.20;36.80
18412;DHT22;27097;51.738;19.472;2023-03-01T15:56:27;20.10;37.20